Latest Weather Observations for Horsham AWS

IDV60801

Issued at 11:02 am EDT Sunday 1 March 2015 (issued every 30 minutes, with the page automatically refreshed every 10 minutes)

About weather observations | Map of weather stations | Latest weather observations for VIC | Other Formats
Station Details ID: 079100 Name: HORSHAM AERODROME Lat: -36.67 Lon: 142.17 Height: 133.8 m
Data from the previous 72 hours. | See also: Recent months at Horsham AWS
Date/Time
EDT
Temp
°C
App
Temp
°C
Dew
Point
Rel
Hum
%
Delta-T
°C
Wind Press
QNH
hPa
Press
MSL
hPa
Rain
since 9 am
mm
Dir
 
Spd
km/h
Gust
km/h
Spd
kts
Gust
kts
01/11:00am 19.5 15.5 11.8 61 4.3 SSW 24 37 13 20 1015.1 1014.8 0.0
01/10:30am 17.2 13.0 11.2 68 3.3 SSW 24 32 13 17 1014.8 1014.3 0.0
01/10:00am 16.0 12.8 12.0 77 2.2 SSW 20 32 11 17 1014.7 1014.2 0.0
01/09:30am 15.6 12.2 12.4 81 1.8 SW 22 28 12 15 1014.1 1013.6 0.0
01/09:00am 14.8 11.7 12.3 85 1.4 SW 20 24 11 13 1013.6 1013.2 2.2
01/08:30am 13.6 10.9 11.7 88 1.0 WSW 17 22 9 12 1013.1 1012.7 2.2
01/08:00am 12.6 11.0 11.5 93 0.6 SW 11 15 6 8 1012.6 1012.2 2.2
01/07:30am 12.5 10.5 11.4 93 0.6 WSW 13 15 7 8 1012.0 1011.5 2.2
01/07:00am 12.8 9.7 11.7 93 0.6 WSW 19 22 10 12 1011.5 1011.0 2.0
01/06:30am 12.6 10.3 11.7 94 0.5 WSW 15 19 8 10 1011.0 1010.5 2.0
01/05:30am 13.0 11.1 11.9 93 0.6 WSW 13 17 7 9 1010.4 1009.9 2.0
01/05:00am 12.9 11.0 11.8 93 0.6 WSW 13 17 7 9 1010.1 1009.6 2.0
01/04:30am 12.5 10.8 11.2 92 0.7 SW 11 15 6 8 1009.7 1009.2 2.0
01/04:00am 12.9 10.5 11.3 90 0.9 WSW 15 17 8 9 1009.6 1009.1 2.0
01/03:30am 13.3 12.6 11.4 88 1.0 SW 6 9 3 5 1009.2 1008.7 2.0
01/03:00am 13.6 11.2 11.5 87 1.1 SW 15 19 8 10 1009.3 1008.8 2.0
01/02:30am 14.3 11.1 11.3 82 1.6 SW 19 22 10 12 1009.2 1008.7 2.0
01/02:00am 15.1 11.3 12.4 84 1.5 SW 24 37 13 20 1008.9 1008.4 2.0
01/01:30am 15.0 10.5 12.5 85 1.4 SW 28 35 15 19 1008.6 1008.1 2.0
01/01:00am 15.7 10.2 12.3 80 1.9 SW 33 43 18 23 1008.4 1007.9 2.0
01/12:30am 16.7 10.9 13.8 83 1.7 SW 37 46 20 25 1008.1 1007.6 2.0
01/12:15am 17.0 11.3 14.1 83 1.7 SW 37 50 20 27 1007.9 1007.4 2.0
01/12:01am 17.0 12.0 15.0 88 1.2 SW 35 52 19 28 1007.9 1007.4 2.0
 
Date/Time
EDT
Temp
°C
App
Temp
°C
Dew
Point
Rel
Hum
%
Delta-T
°C
Wind Press
QNH
hPa
Press
MSL
hPa
Rain
since 9 am
mm
Dir
 
Spd
km/h
Gust
km/h
Spd
kts
Gust
kts
28/11:57pm 17.4 13.1 15.4 88 1.2 SW 32 52 17 28 1007.8 1007.3 2.0
28/11:30pm 17.9 14.5 15.7 87 1.3 SW 28 39 15 21 1007.5 1007.0 2.0
28/11:05pm 17.9 15.4 16.1 89 1.1 SW 24 33 13 18 1007.5 1007.0 2.0
28/11:00pm 17.9 15.4 16.1 89 1.1 SW 24 33 13 18 1007.5 1007.0 2.0
28/10:34pm 18.9 16.1 17.2 90 1.0 SW 28 43 15 23 1007.0 1006.5 2.0
28/10:30pm 19.1 16.8 17.6 91 0.9 SW 26 33 14 18 1006.9 1006.4 2.0
28/10:00pm 18.8 15.6 17.3 91 0.9 SW 30 35 16 19 1005.2 1004.7 2.0
28/09:30pm 19.2 17.6 17.5 90 1.0 SW 22 30 12 16 1005.9 1005.3 2.0
28/09:00pm 19.0 15.9 17.5 91 0.9 SSW 30 39 16 21 1004.8 1004.3 2.0
28/08:30pm 19.2 15.4 17.3 89 1.2 SSW 33 44 18 24 1004.5 1004.0 1.2
28/08:00pm 20.0 16.4 17.2 84 1.7 SW 32 39 17 21 1005.1 1004.6 0.6
28/07:30pm 20.3 15.3 17.1 82 2.0 WSW 39 54 21 29 1004.5 1004.0 0.2
28/07:06pm 22.1 16.5 16.4 70 3.5 SW 41 59 22 32 1003.1 1002.6 0.2
28/07:00pm 22.9 16.5 16.0 65 4.2 SW 44 59 24 32 1003.1 1002.6 0.2
28/06:53pm 23.4 15.8 15.7 62 4.7 SW 50 69 27 37 1002.8 1002.3 0.2
28/06:51pm 23.4 15.4 15.7 62 4.7 SW 52 69 28 37 1002.8 1002.3 0.2
28/06:30pm 25.7 14.9 14.8 51 6.6 WSW 65 91 35 49 1003.2 1002.7 0.2
28/06:26pm 27.2 17.9 14.6 46 7.6 WSW 57 80 31 43 1002.8 1002.3 0.2
28/06:22pm 27.7 19.2 14.3 43 8.1 WSW 52 80 28 43 1002.1 1001.6 0.2
28/06:20pm 28.8 20.8 13.5 39 9.1 W 48 80 26 43 1001.8 1001.3 0.0
28/05:30pm 34.5 27.6 9.0 21 14.6 WNW 35 46 19 25 999.8 999.3 0.0
28/05:00pm 36.3 29.8 9.0 19 15.8 WNW 33 43 18 23 1000.0 999.5 0.0
28/04:40pm 36.3 29.4 9.0 19 15.7 WNW 35 54 19 29 1000.1 999.6 0.0
28/04:30pm 37.0 29.7 8.8 18 16.2 WNW 37 54 20 29 1000.2 999.7 0.0
28/04:26pm 36.4 29.9 8.3 18 16.0 W 32 50 17 27 1000.3 999.8 0.0
28/04:05pm 36.8 29.1 8.6 18 16.2 WNW 39 52 21 28 1000.6 1000.1 0.0
28/04:00pm 35.6 28.2 8.4 19 15.5 W 37 52 20 28 1000.6 1000.1 0.0
28/03:56pm 36.6 29.6 8.4 18 16.1 WNW 35 52 19 28 1000.7 1000.2 0.0
28/03:30pm 36.7 30.3 8.5 18 16.1 NW 32 48 17 26 1001.1 1000.6 0.0
28/03:00pm 34.9 27.4 9.3 21 14.8 NW 39 50 21 27 1001.5 1001.0 0.0
28/02:54pm 35.3 28.8 8.9 20 15.1 NW 33 50 18 27 1001.5 1001.0 0.0
28/02:34pm 35.7 27.6 8.5 19 15.5 WNW 41 61 22 33 1001.9 1001.4 0.0
28/02:30pm 35.5 27.3 8.3 19 15.4 WNW 41 52 22 28 1001.9 1001.4 0.0
28/02:03pm 33.5 27.0 8.2 21 14.2 NW 32 48 17 26 1002.6 1002.1 0.0
28/02:00pm 33.4 26.9 8.1 21 14.2 NNW 32 44 17 24 1002.7 1002.2 0.0
28/01:39pm 34.0 27.2 7.9 20 14.6 NNW 33 54 18 29 1002.8 1002.3 0.0
28/01:30pm 35.2 28.1 8.1 19 15.3 NNW 35 50 19 27 1002.9 1002.4 0.0
28/01:00pm 34.1 26.4 7.2 19 15.0 NNW 37 48 20 26 1003.5 1003.0 0.0
28/12:30pm 31.4 24.4 8.4 24 12.8 N 35 46 19 25 1004.3 1003.8 0.0
28/12:12pm 31.5 23.5 9.1 25 12.6 N 41 61 22 33 1004.5 1004.0 0.0
28/12:00pm 30.4 24.1 9.8 28 11.7 NNE 33 44 18 24 1005.0 1004.5 0.0
28/11:30am 29.1 23.6 10.7 32 10.5 NNE 30 39 16 21 1005.5 1005.0 0.0
28/11:00am 26.8 21.8 10.9 37 9.1 NNE 28 35 15 19 1005.9 1005.3 0.0
28/10:30am 27.1 22.3 10.3 35 9.5 NNE 26 33 14 18 1006.0 1005.5 0.0
28/10:00am 25.3 22.0 14.1 50 6.7 NE 24 30 13 16 1006.0 1005.5 0.0
28/09:30am 22.8 20.7 15.1 62 4.6 NE 20 28 11 15 1006.0 1005.5 0.0
28/09:00am 21.1 19.3 15.4 70 3.4 E 19 20 10 11 1006.2 1005.7 0.2
28/08:30am 19.7 19.8 15.6 77 2.4 SE 9 13 5 7 1006.5 1006.0 0.2
28/08:00am 18.5 18.7 15.7 84 1.7 SSE 9 11 5 6 1006.5 1006.0 0.2
28/07:30am 18.4 18.0 15.1 81 1.9 E 11 13 6 7 1006.2 1005.7 0.2
28/07:00am 18.4 18.0 15.1 81 1.9 N 11 15 6 8 1006.4 1005.9 0.2
28/06:30am 18.1 17.3 15.2 83 1.7 NE 13 17 7 9 1006.1 1005.6 0.2
28/06:00am 18.4 16.3 14.7 79 2.2 ENE 19 20 10 11 1005.8 1005.2 0.2
28/05:30am 18.0 16.5 15.3 84 1.6 E 17 19 9 10 1005.9 1005.3 0.2
28/05:00am 18.0 18.1 15.4 85 1.5 N 9 11 5 6 1007.2 1006.7 0.2
28/04:30am 18.4 16.9 15.3 82 1.8 NNW 17 19 9 10 1007.7 1007.2 0.0
28/04:00am 19.4 18.8 13.6 69 3.3 E 9 11 5 6 1007.1 1006.6 0.0
28/03:30am 18.8 17.6 13.9 73 2.8 SE 13 15 7 8 1007.1 1006.6 0.0
28/03:00am 19.0 20.4 14.3 74 2.7 CALM 0 0 0 0 1007.6 1007.1 0.0
28/02:30am 18.9 18.6 14.4 75 2.6 N 9 9 5 5 1008.0 1007.5 0.0
28/02:00am 19.3 19.5 14.1 72 3.0 N 6 7 3 4 1008.3 1007.8 0.0
28/01:30am 19.8 17.8 12.8 64 4.0 SE 15 20 8 11 1007.8 1007.3 0.0
28/01:00am 20.4 17.9 12.4 60 4.5 ESE 17 20 9 11 1008.8 1008.3 0.0
28/12:30am 22.3 20.5 9.5 44 6.9 SSE 9 11 5 6 1009.4 1008.9 0.0
28/12:00am 22.9 21.1 9.3 42 7.4 E 9 13 5 7 1009.7 1009.2 0.0
 
Date/Time
EDT
Temp
°C
App
Temp
°C
Dew
Point
Rel
Hum
%
Delta-T
°C
Wind Press
QNH
hPa
Press
MSL
hPa
Rain
since 9 am
mm
Dir
 
Spd
km/h
Gust
km/h
Spd
kts
Gust
kts
27/11:30pm 23.8 21.4 8.6 38 8.2 SSE 11 13 6 7 1009.6 1009.1 0.0
27/11:00pm 24.7 21.6 9.0 37 8.6 S 15 17 8 9 1009.7 1009.2 0.0
27/10:30pm 25.8 23.3 9.6 36 9.0 SSW 13 17 7 9 1009.7 1009.2 0.0
27/10:00pm 26.0 22.3 9.4 35 9.2 S 19 26 10 14 1009.3 1008.8 0.0
27/09:30pm 26.5 23.8 11.8 40 8.5 SSW 17 19 9 10 1008.8 1008.3 0.0
27/09:00pm 26.9 24.5 11.4 38 8.9 SSW 15 17 8 9 1008.4 1007.9 0.0
27/08:30pm 27.4 25.0 11.4 37 9.2 S 15 19 8 10 1008.0 1007.5 0.0
27/08:00pm 27.9 24.8 11.5 36 9.5 S 19 22 10 12 1007.7 1007.2 0.0
27/07:30pm 28.6 26.3 11.6 34 9.9 S 15 22 8 12 1007.6 1007.1 0.0
27/07:00pm 29.2 27.6 11.7 34 10.2 SSW 11 17 6 9 1007.4 1006.9 0.0
27/06:30pm 30.1 27.9 12.1 33 10.6 S 15 24 8 13 1007.3 1006.8 0.0
27/06:00pm 29.7 27.8 11.7 33 10.5 SSW 13 20 7 11 1007.2 1006.7 0.0
27/05:30pm 29.9 27.6 11.9 33 10.5 WSW 15 22 8 12 1007.3 1006.8 0.0
27/05:00pm 30.0 28.7 12.4 34 10.4 SSW 11 19 6 10 1007.3 1006.8 0.0
27/04:30pm 29.8 28.5 11.3 32 10.7 SSE 9 15 5 8 1007.4 1006.9 0.0
27/04:00pm 30.3 28.4 11.8 32 10.9 WSW 13 24 7 13 1007.8 1007.3 0.0
27/03:30pm 29.4 28.2 11.5 33 10.4 S 9 19 5 10 1008.3 1007.8 0.0
27/03:00pm 29.0 26.7 11.6 34 10.1 NW 15 26 8 14 1008.9 1008.4 0.0
27/02:30pm 27.9 26.1 11.0 35 9.7 WSW 11 19 6 10 1009.1 1008.6 0.0
27/02:00pm 27.2 25.8 10.8 36 9.3 NW 9 24 5 13 1009.5 1009.0 0.0
27/01:30pm 27.2 25.9 11.2 36 9.2 SW 9 15 5 8 1009.8 1009.3 0.0
27/01:00pm 25.6 24.1 10.6 39 8.4 WSW 9 17 5 9 1010.4 1009.9 0.0
27/12:30pm 24.6 23.2 9.7 39 8.2 WSW 7 15 4 8 1010.8 1010.3 0.0
27/12:00pm 24.7 23.7 10.9 42 7.8 E 7 13 4 7 1011.2 1010.7 0.0
27/11:30am 23.1 22.2 11.5 48 6.5 ENE 7 13 4 7 1011.4 1010.9 0.0
27/11:00am 22.0 21.3 12.0 53 5.7 E 7 13 4 7 1011.7 1011.2 0.0
27/10:30am 20.8 19.8 12.2 58 4.9 NE 9 15 5 8 1011.7 1011.2 0.0
27/10:00am 19.8 18.4 12.1 61 4.3 ESE 11 17 6 9 1011.9 1011.4 0.0
27/09:30am 18.8 17.4 12.3 66 3.6 E 11 15 6 8 1012.0 1011.5 0.0
27/09:00am 17.3 16.4 12.6 74 2.6 ESE 9 13 5 7 1011.8 1011.3 0.0
27/08:30am 14.7 14.5 12.9 89 1.0 SW 6 7 3 4 1011.5 1011.0 0.0
27/08:05am 12.6 11.5 11.8 95 0.4 SW 9 11 5 6 1011.6 1011.1 0.0
27/08:00am 12.0 10.7 11.2 95 0.4 SW 9 13 5 7 1011.5 1011.0 0.0
27/07:30am 11.2 8.9 10.4 95 0.4 SW 13 15 7 8 1011.3 1010.8 0.0
27/07:19am 11.3 9.4 10.4 94 0.5 WSW 11 13 6 7 1011.2 1010.7 0.0
27/07:00am 11.1 9.4 9.9 92 0.6 SW 9 11 5 6 1010.8 1010.3 0.0
27/06:30am 11.7 11.7 9.9 89 0.9 CALM 0 0 0 0 1010.5 1010.0 0.0
27/06:00am 12.0 12.1 10.2 89 0.9 CALM 0 0 0 0 1010.4 1009.9 0.0
27/05:30am 11.4 11.4 9.8 90 0.8 CALM 0 0 0 0 1010.4 1009.9 0.0
27/05:00am 12.0 12.2 10.6 91 0.7 CALM 0 0 0 0 1010.2 1009.7 0.0
27/04:30am 11.7 10.0 9.9 89 0.9 E 9 11 5 6 1010.5 1010.0 0.0
27/04:00am 12.1 10.1 10.2 88 1.0 E 11 13 6 7 1010.6 1010.1 0.0
27/03:30am 12.9 11.5 10.8 87 1.1 E 9 11 5 6 1010.6 1010.1 0.0
27/03:00am 13.5 11.7 11.0 85 1.3 SE 11 13 6 7 1010.9 1010.4 0.0
27/02:30am 15.0 12.8 12.1 83 1.6 S 15 17 8 9 1011.2 1010.7 0.0
27/02:00am 15.6 13.5 12.4 81 1.8 S 15 19 8 10 1011.2 1010.7 0.0
27/01:30am 16.6 14.6 12.8 78 2.1 SSW 15 19 8 10 1011.6 1011.1 0.0
27/01:00am 16.8 14.8 12.7 77 2.3 S 15 19 8 10 1011.5 1011.0 0.0
27/12:30am 17.5 14.7 12.6 73 2.7 S 19 20 10 11 1011.0 1010.5 0.0
27/12:00am 18.0 15.5 12.2 69 3.2 S 17 20 9 11 1011.2 1010.7 0.0
 
Date/Time
EDT
Temp
°C
App
Temp
°C
Dew
Point
Rel
Hum
%
Delta-T
°C
Wind Press
QNH
hPa
Press
MSL
hPa
Rain
since 9 am
mm
Dir
 
Spd
km/h
Gust
km/h
Spd
kts
Gust
kts
26/11:30pm 19.3 16.8 12.3 64 3.9 SSW 17 20 9 11 1011.1 1010.6 0.0
26/11:00pm 20.5 16.9 12.0 58 4.8 SSW 22 28 12 15 1011.2 1010.7 0.0
26/10:30pm 20.4 18.3 9.6 50 5.8 SW 11 15 6 8 1010.6 1010.1 0.0
26/10:00pm 20.5 17.8 8.8 47 6.2 S 13 15 7 8 1010.4 1009.9 0.0
26/09:30pm 19.7 16.4 8.1 47 6.0 S 15 17 8 9 1010.2 1009.7 0.0
26/09:00pm 22.6 19.3 9.4 43 7.2 SSW 17 19 9 10 1010.1 1009.6 0.0
26/08:30pm 24.0 21.0 9.2 39 8.1 SSW 15 20 8 11 1009.8 1009.3 0.0
26/08:00pm 25.6 21.7 9.4 36 8.9 SW 20 28 11 15 1009.5 1009.0 0.0
26/07:30pm 26.8 22.1 9.2 33 9.7 SW 24 32 13 17 1009.2 1008.7 0.0
26/07:00pm 27.2 21.8 9.5 33 9.9 SW 28 35 15 19 1008.9 1008.4 0.0
26/06:30pm 27.8 22.9 10.1 33 10.0 SW 26 33 14 18 1008.8 1008.3 0.0
26/06:00pm 28.8 23.8 10.9 33 10.3 SW 28 37 15 20 1008.7 1008.2 0.0
26/05:30pm 28.5 23.8 12.0 36 9.6 SW 28 43 15 23 1008.7 1008.2 0.0
26/05:00pm 28.8 24.0 11.8 35 9.9 SW 28 37 15 20 1008.8 1008.3 0.0
26/04:30pm 28.8 24.4 11.8 35 9.9 SW 26 39 14 21 1008.9 1008.4 0.0
26/04:00pm 29.0 24.3 12.0 35 9.9 SW 28 43 15 23 1009.2 1008.7 0.0
26/03:30pm 28.5 24.4 11.6 35 9.8 SSW 24 35 13 19 1009.5 1009.0 0.0
26/03:00pm 27.6 23.5 11.6 37 9.2 SW 24 37 13 20 1010.0 1009.5 0.0
26/02:30pm 28.3 24.6 11.4 35 9.7 SW 22 33 12 18 1010.4 1009.9 0.0
26/02:00pm 27.2 22.8 9.1 32 10.0 SSW 22 32 12 17 1010.7 1010.2 0.0
26/01:30pm 28.1 23.6 8.4 29 10.8 SW 22 37 12 20 1010.9 1010.4 0.0
26/01:00pm 25.7 21.5 8.2 33 9.5 SW 20 28 11 15 1011.1 1010.6 0.0
26/12:30pm 26.5 22.1 7.5 30 10.2 SW 20 30 11 16 1011.4 1010.9 0.0
26/12:00pm 24.8 20.9 8.7 36 8.7 SW 19 28 10 15 1011.7 1011.2 0.0
26/11:30am 23.6 20.0 10.6 44 7.2 SW 20 28 11 15 1011.9 1011.4 0.0

Other Formats:

Comma delimited format used in spreadsheet applications
http://www.bom.gov.au/fwo/IDV60801/IDV60801.95839.axf

JavaScript Object Notation format (JSON) in row-major order
http://www.bom.gov.au/fwo/IDV60801/IDV60801.95839.json